sensor_id;sensor_type;location;lat;lon;timestamp;temperature;humidity
16879;DHT22;8556;52.218;9.884;2022-12-29T00:00:13;10.10;99.90
16879;DHT22;8556;52.218;9.884;2022-12-29T00:02:40;10.10;99.90
16879;DHT22;8556;52.218;9.884;2022-12-29T00:05:07;10.20;99.90
16879;DHT22;8556;52.218;9.884;2022-12-29T00:07:34;10.20;99.90
16879;DHT22;8556;52.218;9.884;2022-12-29T00:10:01;10.30;99.90
16879;DHT22;8556;52.218;9.884;2022-12-29T00:12:28;10.20;99.90
16879;DHT22;8556;52.218;9.884;2022-12-29T00:15:16;10.20;99.90
16879;DHT22;8556;52.218;9.884;2022-12-29T00:18:00;10.30;99.90
16879;DHT22;8556;52.218;9.884;2022-12-29T00:20:27;10.30;99.90
16879;DHT22;8556;52.218;9.884;2022-12-29T00:23:23;10.40;99.90
16879;DHT22;8556;52.218;9.884;2022-12-29T00:26:13;10.40;99.90
16879;DHT22;8556;52.218;9.884;2022-12-29T00:28:58;10.40;99.90
16879;DHT22;8556;52.218;9.884;2022-12-29T00:31:43;10.30;99.90
16879;DHT22;8556;52.218;9.884;2022-12-29T00:34:27;10.50;99.90
16879;DHT22;8556;52.218;9.884;2022-12-29T00:37:11;10.50;99.90
16879;DHT22;8556;52.218;9.884;2022-12-29T00:39:38;10.50;99.90
16879;DHT22;8556;52.218;9.884;2022-12-29T00:42:22;10.50;99.90
16879;DHT22;8556;52.218;9.884;2022-12-29T00:45:07;10.40;99.90
16879;DHT22;8556;52.218;9.884;2022-12-29T00:47:35;10.50;99.90
16879;DHT22;8556;52.218;9.884;2022-12-29T00:50:03;10.50;99.90
16879;DHT22;8556;52.218;9.884;2022-12-29T00:52:28;10.60;99.90
16879;DHT22;8556;52.218;9.884;2022-12-29T00:54:55;10.60;99.90
16879;DHT22;8556;52.218;9.884;2022-12-29T00:57:22;10.50;99.90
16879;DHT22;8556;52.218;9.884;2022-12-29T00:59:49;10.40;99.90
16879;DHT22;8556;52.218;9.884;2022-12-29T01:02:15;10.40;99.90
16879;DHT22;8556;52.218;9.884;2022-12-29T01:04:43;10.50;99.90
16879;DHT22;8556;52.218;9.884;2022-12-29T01:07:10;10.50;99.90
16879;DHT22;8556;52.218;9.884;2022-12-29T01:09:37;10.50;99.90
16879;DHT22;8556;52.218;9.884;2022-12-29T01:12:21;10.50;99.90
16879;DHT22;8556;52.218;9.884;2022-12-29T01:15:02;10.50;99.90
16879;DHT22;8556;52.218;9.884;2022-12-29T01:17:29;10.40;99.90
16879;DHT22;8556;52.218;9.884;2022-12-29T01:19:57;10.40;99.90
16879;DHT22;8556;52.218;9.884;2022-12-29T01:22:24;10.40;99.90
16879;DHT22;8556;52.218;9.884;2022-12-29T01:24:51;10.40;99.90
16879;DHT22;8556;52.218;9.884;2022-12-29T01:27:18;10.40;99.90
16879;DHT22;8556;52.218;9.884;2022-12-29T01:29:44;10.40;99.90
16879;DHT22;8556;52.218;9.884;2022-12-29T01:32:11;10.40;99.90
16879;DHT22;8556;52.218;9.884;2022-12-29T01:34:38;10.40;99.90
16879;DHT22;8556;52.218;9.884;2022-12-29T01:37:06;10.40;99.90
16879;DHT22;8556;52.218;9.884;2022-12-29T01:39:33;10.40;99.90
16879;DHT22;8556;52.218;9.884;2022-12-29T01:42:00;10.40;99.90
16879;DHT22;8556;52.218;9.884;2022-12-29T01:44:49;10.40;99.90
16879;DHT22;8556;52.218;9.884;2022-12-29T01:47:21;10.30;99.90
16879;DHT22;8556;52.218;9.884;2022-12-29T01:49:50;10.40;99.90
16879;DHT22;8556;52.218;9.884;2022-12-29T01:52:18;10.40;99.90
16879;DHT22;8556;52.218;9.884;2022-12-29T01:54:49;10.40;99.90
16879;DHT22;8556;52.218;9.884;2022-12-29T01:57:19;10.50;99.90
16879;DHT22;8556;52.218;9.884;2022-12-29T01:59:52;10.40;99.90
16879;DHT22;8556;52.218;9.884;2022-12-29T02:02:20;10.40;99.90
16879;DHT22;8556;52.218;9.884;2022-12-29T02:04:47;10.40;99.90
16879;DHT22;8556;52.218;9.884;2022-12-29T02:07:19;10.40;99.90
16879;DHT22;8556;52.218;9.884;2022-12-29T02:09:47;10.40;99.90
16879;DHT22;8556;52.218;9.884;2022-12-29T02:12:16;10.40;99.90
16879;DHT22;8556;52.218;9.884;2022-12-29T02:14:43;10.50;99.90
16879;DHT22;8556;52.218;9.884;2022-12-29T02:17:16;10.50;99.90
16879;DHT22;8556;52.218;9.884;2022-12-29T02:20:26;10.60;99.90
16879;DHT22;8556;52.218;9.884;2022-12-29T02:23:11;10.60;99.90
16879;DHT22;8556;52.218;9.884;2022-12-29T02:26:14;10.60;99.90
16879;DHT22;8556;52.218;9.884;2022-12-29T02:29:05;10.60;99.90
16879;DHT22;8556;52.218;9.884;2022-12-29T02:31:40;10.80;99.90
16879;DHT22;8556;52.218;9.884;2022-12-29T02:34:17;10.80;99.90
16879;DHT22;8556;52.218;9.884;2022-12-29T02:36:51;10.80;99.90
16879;DHT22;8556;52.218;9.884;2022-12-29T02:39:30;10.80;99.90
16879;DHT22;8556;52.218;9.884;2022-12-29T02:42:04;10.80;99.90
16879;DHT22;8556;52.218;9.884;2022-12-29T02:44:44;10.90;99.90
16879;DHT22;8556;52.218;9.884;2022-12-29T02:47:22;10.80;99.90
16879;DHT22;8556;52.218;9.884;2022-12-29T02:49:57;10.90;99.90
16879;DHT22;8556;52.218;9.884;2022-12-29T02:52:28;10.90;99.90
16879;DHT22;8556;52.218;9.884;2022-12-29T02:54:58;10.80;99.90
16879;DHT22;8556;52.218;9.884;2022-12-29T02:57:32;10.80;99.90
16879;DHT22;8556;52.218;9.884;2022-12-29T03:00:03;10.90;99.90
16879;DHT22;8556;52.218;9.884;2022-12-29T03:02:44;10.90;99.90
16879;DHT22;8556;52.218;9.884;2022-12-29T03:05:27;10.80;99.90
16879;DHT22;8556;52.218;9.884;2022-12-29T03:08:06;10.90;99.90
16879;DHT22;8556;52.218;9.884;2022-12-29T03:10:41;10.90;99.90
16879;DHT22;8556;52.218;9.884;2022-12-29T03:13:19;10.90;99.90
16879;DHT22;8556;52.218;9.884;2022-12-29T03:16:11;11.10;99.90
16879;DHT22;8556;52.218;9.884;2022-12-29T03:18:49;10.90;99.90
16879;DHT22;8556;52.218;9.884;2022-12-29T03:21:22;11.00;99.90
16879;DHT22;8556;52.218;9.884;2022-12-29T03:24:13;10.90;99.90
16879;DHT22;8556;52.218;9.884;2022-12-29T03:26:42;10.90;99.90
16879;DHT22;8556;52.218;9.884;2022-12-29T03:29:10;10.80;99.90
16879;DHT22;8556;52.218;9.884;2022-12-29T03:31:37;10.80;99.90
16879;DHT22;8556;52.218;9.884;2022-12-29T03:34:07;10.80;99.90
16879;DHT22;8556;52.218;9.884;2022-12-29T03:36:40;10.70;99.90
16879;DHT22;8556;52.218;9.884;2022-12-29T03:39:10;10.70;99.90
16879;DHT22;8556;52.218;9.884;2022-12-29T03:41:41;10.80;99.90
16879;DHT22;8556;52.218;9.884;2022-12-29T03:44:10;10.70;99.90
16879;DHT22;8556;52.218;9.884;2022-12-29T03:46:37;10.70;99.90
16879;DHT22;8556;52.218;9.884;2022-12-29T03:49:05;10.60;99.90
16879;DHT22;8556;52.218;9.884;2022-12-29T03:51:32;10.60;99.90
16879;DHT22;8556;52.218;9.884;2022-12-29T03:53:59;10.60;99.90
16879;DHT22;8556;52.218;9.884;2022-12-29T03:56:26;10.80;99.90
16879;DHT22;8556;52.218;9.884;2022-12-29T03:58:53;10.60;99.90
16879;DHT22;8556;52.218;9.884;2022-12-29T04:01:19;10.70;99.90
16879;DHT22;8556;52.218;9.884;2022-12-29T04:03:46;10.70;99.90
16879;DHT22;8556;52.218;9.884;2022-12-29T04:06:14;10.60;99.90
16879;DHT22;8556;52.218;9.884;2022-12-29T04:08:41;10.80;99.90
16879;DHT22;8556;52.218;9.884;2022-12-29T04:11:08;10.80;99.90
16879;DHT22;8556;52.218;9.884;2022-12-29T04:13:35;10.80;99.90
16879;DHT22;8556;52.218;9.884;2022-12-29T04:16:01;10.90;99.90
16879;DHT22;8556;52.218;9.884;2022-12-29T04:18:28;10.90;99.90
16879;DHT22;8556;52.218;9.884;2022-12-29T04:20:55;10.90;99.90
16879;DHT22;8556;52.218;9.884;2022-12-29T04:23:32;10.90;99.90
16879;DHT22;8556;52.218;9.884;2022-12-29T04:26:00;11.00;99.90
16879;DHT22;8556;52.218;9.884;2022-12-29T04:28:27;10.90;99.90
16879;DHT22;8556;52.218;9.884;2022-12-29T04:30:54;11.10;99.90
16879;DHT22;8556;52.218;9.884;2022-12-29T04:33:21;11.00;99.90
16879;DHT22;8556;52.218;9.884;2022-12-29T04:35:49;11.00;99.90
16879;DHT22;8556;52.218;9.884;2022-12-29T04:38:16;11.00;99.90
16879;DHT22;8556;52.218;9.884;2022-12-29T04:40:44;11.00;99.90
16879;DHT22;8556;52.218;9.884;2022-12-29T04:43:12;11.10;99.90
16879;DHT22;8556;52.218;9.884;2022-12-29T04:45:39;11.10;99.90
16879;DHT22;8556;52.218;9.884;2022-12-29T04:48:05;11.10;99.90
16879;DHT22;8556;52.218;9.884;2022-12-29T04:50:32;11.30;99.90
16879;DHT22;8556;52.218;9.884;2022-12-29T04:52:59;11.30;99.90
16879;DHT22;8556;52.218;9.884;2022-12-29T04:55:26;11.40;99.90
16879;DHT22;8556;52.218;9.884;2022-12-29T04:57:54;11.40;99.90
16879;DHT22;8556;52.218;9.884;2022-12-29T05:00:21;11.50;99.90
16879;DHT22;8556;52.218;9.884;2022-12-29T05:02:48;11.50;99.90
16879;DHT22;8556;52.218;9.884;2022-12-29T05:05:15;11.40;99.90
16879;DHT22;8556;52.218;9.884;2022-12-29T05:07:42;11.80;99.90
16879;DHT22;8556;52.218;9.884;2022-12-29T05:10:09;11.80;99.90
16879;DHT22;8556;52.218;9.884;2022-12-29T05:12:37;11.70;99.90
16879;DHT22;8556;52.218;9.884;2022-12-29T05:15:08;11.70;99.90
16879;DHT22;8556;52.218;9.884;2022-12-29T05:17:35;11.80;99.90
16879;DHT22;8556;52.218;9.884;2022-12-29T05:20:03;11.90;99.90
16879;DHT22;8556;52.218;9.884;2022-12-29T05:22:30;11.80;99.90
16879;DHT22;8556;52.218;9.884;2022-12-29T05:24:57;11.70;99.90
16879;DHT22;8556;52.218;9.884;2022-12-29T05:27:24;11.70;99.90
16879;DHT22;8556;52.218;9.884;2022-12-29T05:29:50;12.00;99.90
16879;DHT22;8556;52.218;9.884;2022-12-29T05:32:19;11.90;99.90
16879;DHT22;8556;52.218;9.884;2022-12-29T05:34:45;12.00;99.90
16879;DHT22;8556;52.218;9.884;2022-12-29T05:37:12;11.80;99.90
16879;DHT22;8556;52.218;9.884;2022-12-29T05:39:39;11.80;99.90
16879;DHT22;8556;52.218;9.884;2022-12-29T05:42:06;11.70;99.90
16879;DHT22;8556;52.218;9.884;2022-12-29T05:44:33;11.80;99.90
16879;DHT22;8556;52.218;9.884;2022-12-29T05:46:59;11.70;99.90
16879;DHT22;8556;52.218;9.884;2022-12-29T05:49:28;11.60;99.90
16879;DHT22;8556;52.218;9.884;2022-12-29T05:51:54;11.60;99.90
16879;DHT22;8556;52.218;9.884;2022-12-29T05:54:21;11.60;99.90
16879;DHT22;8556;52.218;9.884;2022-12-29T05:56:48;11.50;99.90
16879;DHT22;8556;52.218;9.884;2022-12-29T05:59:15;11.40;99.90
16879;DHT22;8556;52.218;9.884;2022-12-29T06:01:42;11.40;99.90
16879;DHT22;8556;52.218;9.884;2022-12-29T06:04:08;11.30;99.90
16879;DHT22;8556;52.218;9.884;2022-12-29T06:06:37;11.40;99.90
16879;DHT22;8556;52.218;9.884;2022-12-29T06:09:04;11.30;99.90
16879;DHT22;8556;52.218;9.884;2022-12-29T06:11:31;11.20;99.90
16879;DHT22;8556;52.218;9.884;2022-12-29T06:13:58;11.20;99.90
16879;DHT22;8556;52.218;9.884;2022-12-29T06:16:25;11.10;99.90
16879;DHT22;8556;52.218;9.884;2022-12-29T06:18:52;11.20;99.90
16879;DHT22;8556;52.218;9.884;2022-12-29T06:21:19;11.20;99.90
16879;DHT22;8556;52.218;9.884;2022-12-29T06:23:47;11.10;99.90
16879;DHT22;8556;52.218;9.884;2022-12-29T06:26:13;11.10;99.90
16879;DHT22;8556;52.218;9.884;2022-12-29T06:28:40;11.20;99.90
16879;DHT22;8556;52.218;9.884;2022-12-29T06:31:09;11.20;99.90
16879;DHT22;8556;52.218;9.884;2022-12-29T06:33:35;11.20;99.90
16879;DHT22;8556;52.218;9.884;2022-12-29T06:36:02;11.50;99.90
16879;DHT22;8556;52.218;9.884;2022-12-29T06:38:29;11.40;99.90
16879;DHT22;8556;52.218;9.884;2022-12-29T06:40:57;11.40;99.90
16879;DHT22;8556;52.218;9.884;2022-12-29T06:43:24;11.40;99.90
16879;DHT22;8556;52.218;9.884;2022-12-29T06:45:51;11.40;99.90
16879;DHT22;8556;52.218;9.884;2022-12-29T06:48:18;11.50;99.90
16879;DHT22;8556;52.218;9.884;2022-12-29T06:50:44;11.60;99.90
16879;DHT22;8556;52.218;9.884;2022-12-29T06:53:11;11.60;99.90
16879;DHT22;8556;52.218;9.884;2022-12-29T06:55:38;11.50;99.90
16879;DHT22;8556;52.218;9.884;2022-12-29T06:58:06;11.50;99.90
16879;DHT22;8556;52.218;9.884;2022-12-29T07:00:33;11.60;99.90
16879;DHT22;8556;52.218;9.884;2022-12-29T07:03:00;11.60;99.90
16879;DHT22;8556;52.218;9.884;2022-12-29T07:05:27;11.70;99.90
16879;DHT22;8556;52.218;9.884;2022-12-29T07:07:54;11.70;99.90
16879;DHT22;8556;52.218;9.884;2022-12-29T07:10:22;11.80;99.90
16879;DHT22;8556;52.218;9.884;2022-12-29T07:12:49;11.90;99.90
16879;DHT22;8556;52.218;9.884;2022-12-29T07:15:17;11.90;99.90
16879;DHT22;8556;52.218;9.884;2022-12-29T07:17:44;12.00;99.90
16879;DHT22;8556;52.218;9.884;2022-12-29T07:20:10;12.10;99.90
16879;DHT22;8556;52.218;9.884;2022-12-29T07:22:37;12.20;99.90
16879;DHT22;8556;52.218;9.884;2022-12-29T07:25:05;12.10;99.90
16879;DHT22;8556;52.218;9.884;2022-12-29T07:27:32;12.10;99.90
16879;DHT22;8556;52.218;9.884;2022-12-29T07:29:58;11.80;99.90
16879;DHT22;8556;52.218;9.884;2022-12-29T07:32:27;11.90;99.90
16879;DHT22;8556;52.218;9.884;2022-12-29T07:34:53;12.00;99.90
16879;DHT22;8556;52.218;9.884;2022-12-29T07:37:20;12.00;99.90
16879;DHT22;8556;52.218;9.884;2022-12-29T07:39:47;12.10;99.90
16879;DHT22;8556;52.218;9.884;2022-12-29T07:42:14;12.30;99.90
16879;DHT22;8556;52.218;9.884;2022-12-29T07:44:40;12.00;99.90
16879;DHT22;8556;52.218;9.884;2022-12-29T07:47:07;12.00;99.90
16879;DHT22;8556;52.218;9.884;2022-12-29T07:49:35;11.80;99.90
16879;DHT22;8556;52.218;9.884;2022-12-29T07:52:02;11.90;99.90
16879;DHT22;8556;52.218;9.884;2022-12-29T07:54:29;11.80;99.90
16879;DHT22;8556;52.218;9.884;2022-12-29T07:56:56;11.90;99.90
16879;DHT22;8556;52.218;9.884;2022-12-29T07:59:23;11.90;99.90
16879;DHT22;8556;52.218;9.884;2022-12-29T08:01:49;11.80;99.90
16879;DHT22;8556;52.218;9.884;2022-12-29T08:04:16;11.80;99.90
16879;DHT22;8556;52.218;9.884;2022-12-29T08:06:44;11.90;99.90
16879;DHT22;8556;52.218;9.884;2022-12-29T08:09:12;11.70;99.90
16879;DHT22;8556;52.218;9.884;2022-12-29T08:11:38;11.50;99.90
16879;DHT22;8556;52.218;9.884;2022-12-29T08:14:05;11.30;99.90
16879;DHT22;8556;52.218;9.884;2022-12-29T08:16:32;11.30;99.90
16879;DHT22;8556;52.218;9.884;2022-12-29T08:18:59;11.20;99.90
16879;DHT22;8556;52.218;9.884;2022-12-29T08:21:27;11.20;99.90
16879;DHT22;8556;52.218;9.884;2022-12-29T08:23:55;11.20;99.90
16879;DHT22;8556;52.218;9.884;2022-12-29T08:26:24;11.30;99.90
16879;DHT22;8556;52.218;9.884;2022-12-29T08:28:52;11.20;99.90
16879;DHT22;8556;52.218;9.884;2022-12-29T08:31:19;11.10;99.90
16879;DHT22;8556;52.218;9.884;2022-12-29T08:33:46;11.00;99.90
16879;DHT22;8556;52.218;9.884;2022-12-29T08:36:12;11.00;99.90
16879;DHT22;8556;52.218;9.884;2022-12-29T08:38:39;10.90;99.90
16879;DHT22;8556;52.218;9.884;2022-12-29T08:41:07;10.80;99.90
16879;DHT22;8556;52.218;9.884;2022-12-29T08:43:34;10.90;99.90
16879;DHT22;8556;52.218;9.884;2022-12-29T08:46:01;10.80;99.90
16879;DHT22;8556;52.218;9.884;2022-12-29T08:48:28;10.80;99.90
16879;DHT22;8556;52.218;9.884;2022-12-29T08:50:55;10.80;99.90
16879;DHT22;8556;52.218;9.884;2022-12-29T08:53:22;10.70;99.90
16879;DHT22;8556;52.218;9.884;2022-12-29T08:55:55;10.60;99.90
16879;DHT22;8556;52.218;9.884;2022-12-29T08:58:25;10.40;99.90
16879;DHT22;8556;52.218;9.884;2022-12-29T09:00:52;10.20;99.90
16879;DHT22;8556;52.218;9.884;2022-12-29T09:03:20;10.10;99.90
16879;DHT22;8556;52.218;9.884;2022-12-29T09:05:48;10.10;99.90
16879;DHT22;8556;52.218;9.884;2022-12-29T09:08:15;10.20;99.90
16879;DHT22;8556;52.218;9.884;2022-12-29T09:10:42;10.20;99.90
16879;DHT22;8556;52.218;9.884;2022-12-29T09:13:08;10.30;99.90
16879;DHT22;8556;52.218;9.884;2022-12-29T09:15:37;10.30;99.90
16879;DHT22;8556;52.218;9.884;2022-12-29T09:18:05;10.20;99.90
16879;DHT22;8556;52.218;9.884;2022-12-29T09:20:31;10.30;99.90
16879;DHT22;8556;52.218;9.884;2022-12-29T09:22:59;10.30;99.90
16879;DHT22;8556;52.218;9.884;2022-12-29T09:25:27;10.60;99.90
16879;DHT22;8556;52.218;9.884;2022-12-29T09:27:54;10.60;99.90
16879;DHT22;8556;52.218;9.884;2022-12-29T09:30:23;10.50;99.90
16879;DHT22;8556;52.218;9.884;2022-12-29T09:32:51;10.50;99.90
16879;DHT22;8556;52.218;9.884;2022-12-29T09:35:18;10.50;99.90
16879;DHT22;8556;52.218;9.884;2022-12-29T09:37:45;10.50;99.90
16879;DHT22;8556;52.218;9.884;2022-12-29T09:40:22;10.50;99.90
16879;DHT22;8556;52.218;9.884;2022-12-29T09:43:00;10.50;99.90
16879;DHT22;8556;52.218;9.884;2022-12-29T09:45:36;10.40;99.90
16879;DHT22;8556;52.218;9.884;2022-12-29T09:48:13;10.50;99.90
16879;DHT22;8556;52.218;9.884;2022-12-29T09:50:44;10.40;99.90
16879;DHT22;8556;52.218;9.884;2022-12-29T09:53:17;10.50;99.90
16879;DHT22;8556;52.218;9.884;2022-12-29T09:55:48;10.50;99.90
16879;DHT22;8556;52.218;9.884;2022-12-29T09:58:21;10.60;99.90
16879;DHT22;8556;52.218;9.884;2022-12-29T10:00:53;10.60;99.90
16879;DHT22;8556;52.218;9.884;2022-12-29T10:03:26;10.80;99.90
16879;DHT22;8556;52.218;9.884;2022-12-29T10:05:58;10.90;99.90
16879;DHT22;8556;52.218;9.884;2022-12-29T10:08:34;11.00;99.90
16879;DHT22;8556;52.218;9.884;2022-12-29T10:11:10;11.20;99.90
16879;DHT22;8556;52.218;9.884;2022-12-29T10:13:51;11.30;99.90
16879;DHT22;8556;52.218;9.884;2022-12-29T10:16:26;11.60;99.90
16879;DHT22;8556;52.218;9.884;2022-12-29T10:19:12;11.70;99.90
16879;DHT22;8556;52.218;9.884;2022-12-29T10:21:57;11.60;99.90
16879;DHT22;8556;52.218;9.884;2022-12-29T10:24:27;11.70;99.90
16879;DHT22;8556;52.218;9.884;2022-12-29T10:26:56;11.50;99.90
16879;DHT22;8556;52.218;9.884;2022-12-29T10:29:27;11.60;99.90
16879;DHT22;8556;52.218;9.884;2022-12-29T10:32:00;11.50;99.90
16879;DHT22;8556;52.218;9.884;2022-12-29T10:34:34;11.50;99.90
16879;DHT22;8556;52.218;9.884;2022-12-29T10:37:05;11.60;99.90
16879;DHT22;8556;52.218;9.884;2022-12-29T10:39:39;11.70;99.90
16879;DHT22;8556;52.218;9.884;2022-12-29T10:42:13;11.70;99.90
16879;DHT22;8556;52.218;9.884;2022-12-29T10:44:41;11.80;99.90
16879;DHT22;8556;52.218;9.884;2022-12-29T10:47:13;11.80;99.90
16879;DHT22;8556;52.218;9.884;2022-12-29T10:49:45;12.00;99.90
16879;DHT22;8556;52.218;9.884;2022-12-29T10:52:15;12.10;99.90
16879;DHT22;8556;52.218;9.884;2022-12-29T10:54:46;12.00;99.90
16879;DHT22;8556;52.218;9.884;2022-12-29T10:57:20;12.10;99.90
16879;DHT22;8556;52.218;9.884;2022-12-29T10:59:48;12.00;99.90
16879;DHT22;8556;52.218;9.884;2022-12-29T11:02:55;11.80;99.90
16879;DHT22;8556;52.218;9.884;2022-12-29T11:05:33;11.80;99.90
16879;DHT22;8556;52.218;9.884;2022-12-29T11:08:04;11.80;99.90
16879;DHT22;8556;52.218;9.884;2022-12-29T11:10:36;11.90;99.90
16879;DHT22;8556;52.218;9.884;2022-12-29T11:13:11;11.90;99.90
16879;DHT22;8556;52.218;9.884;2022-12-29T11:15:41;11.90;99.90
16879;DHT22;8556;52.218;9.884;2022-12-29T11:18:19;11.90;99.90
16879;DHT22;8556;52.218;9.884;2022-12-29T11:20:51;12.00;99.90
16879;DHT22;8556;52.218;9.884;2022-12-29T11:23:29;12.00;99.90
16879;DHT22;8556;52.218;9.884;2022-12-29T11:26:15;12.00;99.90
16879;DHT22;8556;52.218;9.884;2022-12-29T11:28:44;12.00;99.90
16879;DHT22;8556;52.218;9.884;2022-12-29T11:31:16;12.00;99.90
16879;DHT22;8556;52.218;9.884;2022-12-29T11:33:43;12.00;99.90
16879;DHT22;8556;52.218;9.884;2022-12-29T11:36:15;11.90;99.90
16879;DHT22;8556;52.218;9.884;2022-12-29T11:38:47;11.80;99.90
16879;DHT22;8556;52.218;9.884;2022-12-29T11:41:20;11.80;99.90
16879;DHT22;8556;52.218;9.884;2022-12-29T11:43:47;11.90;99.90
16879;DHT22;8556;52.218;9.884;2022-12-29T11:46:17;11.80;99.90
16879;DHT22;8556;52.218;9.884;2022-12-29T11:48:46;11.80;99.90
16879;DHT22;8556;52.218;9.884;2022-12-29T11:51:22;11.60;99.90
16879;DHT22;8556;52.218;9.884;2022-12-29T11:53:52;11.60;99.90
16879;DHT22;8556;52.218;9.884;2022-12-29T11:56:30;11.50;99.90
16879;DHT22;8556;52.218;9.884;2022-12-29T11:58:58;11.50;99.90
16879;DHT22;8556;52.218;9.884;2022-12-29T12:01:30;11.70;99.90
16879;DHT22;8556;52.218;9.884;2022-12-29T12:04:03;11.80;99.90
16879;DHT22;8556;52.218;9.884;2022-12-29T12:06:34;12.30;99.90
16879;DHT22;8556;52.218;9.884;2022-12-29T12:09:05;12.10;99.90
16879;DHT22;8556;52.218;9.884;2022-12-29T12:11:36;11.80;99.90
16879;DHT22;8556;52.218;9.884;2022-12-29T12:14:11;11.70;99.90
16879;DHT22;8556;52.218;9.884;2022-12-29T12:16:41;11.70;99.90
16879;DHT22;8556;52.218;9.884;2022-12-29T12:19:13;11.70;99.90
16879;DHT22;8556;52.218;9.884;2022-12-29T12:21:46;11.70;99.90
16879;DHT22;8556;52.218;9.884;2022-12-29T12:24:34;11.60;99.90
16879;DHT22;8556;52.218;9.884;2022-12-29T12:27:11;11.60;99.90
16879;DHT22;8556;52.218;9.884;2022-12-29T12:29:45;11.80;99.90
16879;DHT22;8556;52.218;9.884;2022-12-29T12:32:16;11.70;99.90
16879;DHT22;8556;52.218;9.884;2022-12-29T12:34:46;11.80;99.90
16879;DHT22;8556;52.218;9.884;2022-12-29T12:37:33;11.80;99.90
16879;DHT22;8556;52.218;9.884;2022-12-29T12:40:20;11.80;99.90
16879;DHT22;8556;52.218;9.884;2022-12-29T12:43:00;11.90;99.90
16879;DHT22;8556;52.218;9.884;2022-12-29T12:45:43;11.70;99.90
16879;DHT22;8556;52.218;9.884;2022-12-29T12:48:24;11.80;99.90
16879;DHT22;8556;52.218;9.884;2022-12-29T12:51:02;11.70;99.90
16879;DHT22;8556;52.218;9.884;2022-12-29T12:53:45;11.70;99.90
16879;DHT22;8556;52.218;9.884;2022-12-29T12:56:52;11.70;99.90
16879;DHT22;8556;52.218;9.884;2022-12-29T12:59:33;11.60;99.90
16879;DHT22;8556;52.218;9.884;2022-12-29T13:02:15;11.70;99.90
16879;DHT22;8556;52.218;9.884;2022-12-29T13:04:56;11.60;99.90
16879;DHT22;8556;52.218;9.884;2022-12-29T13:07:32;11.60;99.90
16879;DHT22;8556;52.218;9.884;2022-12-29T13:10:22;11.60;99.90
16879;DHT22;8556;52.218;9.884;2022-12-29T13:13:07;11.60;99.90
16879;DHT22;8556;52.218;9.884;2022-12-29T13:15:44;11.60;99.90
16879;DHT22;8556;52.218;9.884;2022-12-29T13:18:21;11.60;99.90
16879;DHT22;8556;52.218;9.884;2022-12-29T13:20:54;11.70;99.90
16879;DHT22;8556;52.218;9.884;2022-12-29T13:23:29;11.70;99.90
16879;DHT22;8556;52.218;9.884;2022-12-29T13:26:03;11.70;99.90
16879;DHT22;8556;52.218;9.884;2022-12-29T13:28:39;11.70;99.90
16879;DHT22;8556;52.218;9.884;2022-12-29T13:31:16;11.70;99.90
16879;DHT22;8556;52.218;9.884;2022-12-29T13:33:51;11.70;99.90
16879;DHT22;8556;52.218;9.884;2022-12-29T13:36:24;11.70;99.90
16879;DHT22;8556;52.218;9.884;2022-12-29T13:39:02;11.80;99.90
16879;DHT22;8556;52.218;9.884;2022-12-29T13:41:34;11.70;99.90
16879;DHT22;8556;52.218;9.884;2022-12-29T13:44:03;11.70;99.90
16879;DHT22;8556;52.218;9.884;2022-12-29T13:46:36;11.70;99.90
16879;DHT22;8556;52.218;9.884;2022-12-29T13:49:06;11.70;99.90
16879;DHT22;8556;52.218;9.884;2022-12-29T13:51:35;11.70;99.90
16879;DHT22;8556;52.218;9.884;2022-12-29T13:54:15;11.70;99.90
16879;DHT22;8556;52.218;9.884;2022-12-29T13:56:50;11.70;99.90
16879;DHT22;8556;52.218;9.884;2022-12-29T13:59:23;11.60;99.90
16879;DHT22;8556;52.218;9.884;2022-12-29T14:01:56;11.60;99.90
16879;DHT22;8556;52.218;9.884;2022-12-29T14:04:27;11.60;99.90
16879;DHT22;8556;52.218;9.884;2022-12-29T14:07:00;11.60;99.90
16879;DHT22;8556;52.218;9.884;2022-12-29T14:09:42;11.60;99.90
16879;DHT22;8556;52.218;9.884;2022-12-29T14:12:32;11.60;99.90
16879;DHT22;8556;52.218;9.884;2022-12-29T14:15:14;11.60;99.90
16879;DHT22;8556;52.218;9.884;2022-12-29T14:17:42;11.50;99.90
16879;DHT22;8556;52.218;9.884;2022-12-29T14:20:18;11.50;99.90
16879;DHT22;8556;52.218;9.884;2022-12-29T14:22:57;11.50;99.90
16879;DHT22;8556;52.218;9.884;2022-12-29T14:28:36;11.50;99.90
16879;DHT22;8556;52.218;9.884;2022-12-29T14:31:04;11.40;99.90
16879;DHT22;8556;52.218;9.884;2022-12-29T14:33:33;11.50;99.90
16879;DHT22;8556;52.218;9.884;2022-12-29T14:36:18;11.40;99.90
16879;DHT22;8556;52.218;9.884;2022-12-29T14:38:46;11.40;99.90
16879;DHT22;8556;52.218;9.884;2022-12-29T14:41:23;11.40;99.90
16879;DHT22;8556;52.218;9.884;2022-12-29T14:43:54;11.40;99.90
16879;DHT22;8556;52.218;9.884;2022-12-29T14:46:22;11.40;99.90
16879;DHT22;8556;52.218;9.884;2022-12-29T14:48:56;11.40;99.90
16879;DHT22;8556;52.218;9.884;2022-12-29T14:51:31;11.30;99.90
16879;DHT22;8556;52.218;9.884;2022-12-29T14:57:03;11.30;99.90
16879;DHT22;8556;52.218;9.884;2022-12-29T14:59:34;11.30;99.90
16879;DHT22;8556;52.218;9.884;2022-12-29T15:02:05;11.30;99.90
16879;DHT22;8556;52.218;9.884;2022-12-29T15:04:39;11.30;99.90
16879;DHT22;8556;52.218;9.884;2022-12-29T15:07:08;11.30;99.90
16879;DHT22;8556;52.218;9.884;2022-12-29T15:09:37;11.30;99.90
16879;DHT22;8556;52.218;9.884;2022-12-29T15:12:12;11.20;99.90
16879;DHT22;8556;52.218;9.884;2022-12-29T15:14:51;11.00;99.90
16879;DHT22;8556;52.218;9.884;2022-12-29T15:17:26;11.00;99.90
16879;DHT22;8556;52.218;9.884;2022-12-29T15:19:55;10.90;99.90
16879;DHT22;8556;52.218;9.884;2022-12-29T15:22:23;10.90;99.90
16879;DHT22;8556;52.218;9.884;2022-12-29T15:24:52;10.90;99.90
16879;DHT22;8556;52.218;9.884;2022-12-29T15:27:21;10.90;99.90
16879;DHT22;8556;52.218;9.884;2022-12-29T15:29:57;10.90;99.90
16879;DHT22;8556;52.218;9.884;2022-12-29T15:32:25;10.90;99.90
16879;DHT22;8556;52.218;9.884;2022-12-29T15:34:54;11.00;99.90
16879;DHT22;8556;52.218;9.884;2022-12-29T15:37:23;10.80;99.90
16879;DHT22;8556;52.218;9.884;2022-12-29T15:39:51;10.80;99.90
16879;DHT22;8556;52.218;9.884;2022-12-29T15:42:29;10.90;99.90
16879;DHT22;8556;52.218;9.884;2022-12-29T15:45:03;10.90;99.90
16879;DHT22;8556;52.218;9.884;2022-12-29T15:47:31;10.80;99.90
16879;DHT22;8556;52.218;9.884;2022-12-29T15:50:02;10.70;99.90
16879;DHT22;8556;52.218;9.884;2022-12-29T15:52:32;10.50;99.90
16879;DHT22;8556;52.218;9.884;2022-12-29T15:55:01;10.40;99.90
16879;DHT22;8556;52.218;9.884;2022-12-29T15:57:30;10.10;99.90
16879;DHT22;8556;52.218;9.884;2022-12-29T15:59:59;10.00;99.90
16879;DHT22;8556;52.218;9.884;2022-12-29T16:02:27;9.80;99.90
16879;DHT22;8556;52.218;9.884;2022-12-29T16:04:54;9.80;99.90
16879;DHT22;8556;52.218;9.884;2022-12-29T16:07:25;9.70;99.90
16879;DHT22;8556;52.218;9.884;2022-12-29T16:09:57;9.60;99.90
16879;DHT22;8556;52.218;9.884;2022-12-29T16:12:27;9.70;99.90
16879;DHT22;8556;52.218;9.884;2022-12-29T16:14:58;9.60;99.90
16879;DHT22;8556;52.218;9.884;2022-12-29T16:17:29;9.60;99.90
16879;DHT22;8556;52.218;9.884;2022-12-29T16:19:58;9.60;99.90